Virginia Peak (RGX), Nevada Weather observations

 Day   Time    Ave.   Ave.  Ave.  Vector  Max.   Total    Solar  
  of    of     Air    Rel.  Wind   Wind   Wind  Precip.   Rad.   
Year   Day     Temp.  Hum.  Speed  Dir.   Gust                   
2016   (PST)    F      %     mph   deg.    mph    in.     W/m2  
----------------------------------------------------------------
 121   22:45   36.0    55   34.0    53    37.0   999.00     999
 121   23:00   35.0    58   34.0    51    38.0   999.00     999
 121   23:15   35.0    59   33.0    57    36.0   999.00     999
 121   23:30   34.0    62   28.0    63    34.0   999.00     999
 121   23:45   34.0    63   30.0    58    33.0   999.00     999
 122    0:00   34.0    65   25.0    59    31.0   999.00     999
 122    0:15   33.0    67   23.0    63    28.0   999.00     999
 122    0:30   33.0    68   17.0    79    28.0   999.00     999
 122    0:45   33.0    69   13.0    46    22.0   999.00     999
 122    1:00   33.0    69   14.0    59    21.0   999.00     999
 122    1:15   33.0    69   10.0     3    23.0   999.00     999
 122    1:30   -0.0     0   25.0    66     0.0   999.00     999
 122    1:45   32.0    72   24.0    56    26.0   999.00     999
 122    2:00   32.0    72   25.0    52    29.0   999.00     999
 122    2:15   32.0    74   25.0    50    29.0   999.00     999
 122    2:30   -0.0     0   25.0    53    29.0   999.00     999
 122    2:45   31.0    73   23.0    44    28.0   999.00     999
 122    3:00   31.0    73   24.0    63    29.0   999.00     999
 122    3:15   31.0    74   26.0    55    28.0   999.00     999
 122    3:30   31.0    75   22.0    56    25.0   999.00     999
 122    3:45   31.0    76   20.0    47    23.0   999.00     999
 122    4:00   30.0    77   23.0    55    23.0   999.00     999
 122    4:15   30.0    78   19.0    53    25.0   999.00     999
 122    4:30   30.0    80   17.0    45    21.0   999.00     999
 122    4:45   29.0    81   19.0    38    19.0   999.00     999
 122    5:00   29.0    83   19.0    53    20.0   999.00     999
 122    5:15   29.0    85   15.0    33    20.0   999.00     999
 122    5:30   29.0    87   16.0    42    16.0   999.00     999
 122    5:45   29.0    87   17.0    33    17.0   999.00     999
 122    6:00   29.0    87   14.0    33    21.0   999.00     999
 122    6:15   30.0    86   14.0    51    17.0   999.00     999
 122    6:30   30.0    87  156.0    34     0.0   999.00     999
 122    6:45   31.0    85   15.0    54    16.0   999.00     999
 122    7:00   31.0    85   15.0    45     0.0   999.00     999
 122    7:15   31.0    83   14.0    46    18.0   999.00     999
 122    7:30   32.0    82   14.0    43    17.0   999.00     999
 122    7:45   -0.0    85   16.0    47    17.0   999.00     999
 122    8:00   31.0    86   17.0    54    19.0   999.00     999
 122    8:15   31.0    83   14.0    53    19.0   999.00     999
 122    8:30   31.0    82   17.0    57    17.0   999.00     999
 122    8:45   33.0    77   15.0    63    20.0   999.00     999
 122    9:00   35.0    72   14.0    60    22.0   999.00     999
 122    9:15   35.0    71   19.0    57    22.0   999.00     999
 122    9:30   35.0    72   23.0    61    23.0   999.00     999
 122    9:45   35.0    72   20.0    69    25.0   999.00     999
 122   10:00   34.0    74   24.0    70    25.0   999.00     999
 122   10:15   -0.0    76   21.0    48    25.0   999.00     999
 122   10:30   34.0    74   25.0    63    27.0   999.00     999
 122   10:45   34.0    76   23.0    53    24.0   999.00     999
 122   11:00   37.0    68   20.0    18    26.0   999.00     999
 122   11:15   38.0    66   25.0    80    27.0   999.00     999
 122   11:30   38.0    65   17.0    63    26.0   999.00     999
 122   11:45   39.0    63   17.0    60    24.0   999.00     999
 122   12:00   38.0    62   18.0    64    25.0   999.00     999
 122   12:15   40.0    65   16.0    72    28.0   999.00     999
 122   12:30   40.0    60   15.0    58    25.0   999.00     999
 122   12:45   40.0    61   21.0    62    24.0   999.00     999
 122   13:00   39.0    59   20.0    63    23.0   999.00     999
 122   13:15   40.0    55   17.0    91    23.0   999.00     999
 122   13:30   40.0    51   14.0    90    22.0   999.00     999
 122   13:45   41.0    51   21.0    96    23.0   999.00     999
 122   14:00   41.0    52   16.0    81    20.0   999.00     999
 122   14:15   41.0    51   19.0    75    23.0   999.00     999
 122   14:30   41.0    46   17.0    77    23.0   999.00     999
 122   14:45   43.0    45   18.0    72    23.0   999.00     999
 122   15:00   42.0    47   20.0    45    25.0   999.00     999
 122   15:15   41.0    46   20.0    79    24.0   999.00     999
 122   15:30   41.0    46   13.0    70    22.0   999.00     999
 122   15:45   41.0    46   16.0   101    19.0   999.00     999
 122   16:00   42.0    44   16.0    78    19.0   999.00     999
 122   16:15  999.0   999  999.0   999   999.0   999.00     999
 122   16:30   43.0    41    0.0     0    20.0   999.00     999
 122   16:45   43.0    42   21.0    64    22.0   999.00     999
 122   17:00   43.0    43   14.0    58    20.0   999.00     999
 122   17:15   43.0    41   13.0    78    19.0   999.00     999
 122   17:30   43.0    44   16.0    59    18.0   999.00     999
 122   17:45   42.0    46   17.0    65    19.0   999.00     999
 122   18:00   42.0    46   13.0    65    16.0   999.00     999
 122   18:15   42.0    47   11.0    72    17.0   999.00     999
 122   18:30   43.0    46   15.0    74    15.0   999.00     999
 122   18:45   41.0    50   10.0    81    22.0   999.00     999
 122   19:00   41.0    52   13.0    62    18.0   999.00     999
 122   19:15   40.0    52   17.0    71    22.0   999.00     999
 122   19:30   40.0    54   19.0    64    21.0   999.00     999
 122   19:45   39.0    56   18.0    65    22.0   999.00     999
 122   20:00   38.0    58   17.0    67    21.0   999.00     999
 122   20:15   38.0    58   17.0    64    20.0   999.00     999
 122   20:30   38.0    59   14.0    65    19.0   999.00     999
 122   20:45   38.0    58   15.0    72    18.0   999.00     999
 122   21:00   38.0    58   17.0    71    19.0   999.00     999
 122   21:15   38.0    57   17.0    67    20.0   999.00     999
 122   21:30   38.0    58   14.0    85    19.0   999.00     999
 122   21:45   38.0    58   16.0    81    17.0   999.00     999
 122   22:00   38.0    58   11.0    79    18.0   999.00     999
 122   22:15   39.0    55   13.0    81    14.0   999.00     999
 122   22:30   39.0    55   11.0    99    15.0   999.00     999

Return to Virginia Peak (RGX) graphs page.


Western Regional Climate Center,wrcc@dri.edu